Time;durP1;ratioP1;P1;durP2;ratioP2;P2;SDS_P1;SDS_P2;PMS_P1;PMS_P2;Temp;Humidity;BMP_temperature;BMP_pressure;BME280_temperature;BME280_humidity;BME280_pressure;Samples;Min_cycle;Max_cycle;Signal;HPM_P1;HPM_P2
2023/08/11 00:02:13;;;;;;;4.50;2.72;;;17.90;99.90;;;;;;5024245;28;20699;-71
2023/08/11 00:04:39;;;;;;;5.03;2.17;;;17.90;99.90;;;;;;5010542;28;20558;-71
2023/08/11 00:07:05;;;;;;;3.58;2.28;;;17.90;99.90;;;;;;5024692;28;20374;-72
2023/08/11 00:09:31;;;;;;;6.93;2.50;;;17.90;99.90;;;;;;5028600;28;20055;-71
2023/08/11 00:11:56;;;;;;;5.57;2.17;;;17.90;99.90;;;;;;5027428;28;20541;-72
2023/08/11 00:14:22;;;;;;;3.50;1.98;;;17.90;99.90;;;;;;5010532;28;20041;-73
2023/08/11 00:16:47;;;;;;;6.35;2.47;;;17.90;99.90;;;;;;5027531;28;20103;-70
2023/08/11 00:19:13;;;;;;;7.97;2.22;;;18.00;99.90;;;;;;5027857;28;20112;-71
2023/08/11 00:21:39;;;;;;;4.75;2.17;;;17.90;99.90;;;;;;5024000;28;20121;-71
2023/08/11 00:24:04;;;;;;;5.15;2.55;;;18.00;99.90;;;;;;5009030;28;20021;-70
2023/08/11 00:26:30;;;;;;;6.88;2.20;;;18.00;99.90;;;;;;5028294;28;20080;-69
2023/08/11 00:28:56;;;;;;;6.63;2.15;;;18.00;99.90;;;;;;5026852;28;20029;-71
2023/08/11 00:31:22;;;;;;;5.10;2.50;;;18.00;99.90;;;;;;5028228;28;20037;-72
2023/08/11 00:33:51;;;;;;;5.20;2.78;;;17.90;99.90;;;;;;5008971;28;20111;-69
2023/08/11 00:36:17;;;;;;;10.57;2.20;;;17.90;99.90;;;;;;5027911;28;20504;-71
2023/08/11 00:38:43;;;;;;;6.05;2.30;;;17.90;99.90;;;;;;5009843;28;20128;-71
2023/08/11 00:41:09;;;;;;;4.07;2.10;;;17.90;99.90;;;;;;5009191;28;20116;-71
2023/08/11 00:43:35;;;;;;;8.13;2.40;;;17.80;99.90;;;;;;5024646;28;20037;-71
2023/08/11 00:46:15;;;;;;;32.13;3.60;;;17.80;99.90;;;;;;5009517;28;20553;-70
2023/08/11 00:48:42;;;;;;;6.15;2.97;;;17.70;99.90;;;;;;5007471;28;20120;-72
2023/08/11 00:51:13;;;;;;;4.55;1.92;;;17.70;99.90;;;;;;5009153;28;20130;-72
2023/08/11 00:53:40;;;;;;;3.83;2.40;;;17.70;99.90;;;;;;5009866;28;20120;-70
2023/08/11 00:56:07;;;;;;;4.38;2.40;;;17.70;99.90;;;;;;5009435;28;20137;-70
2023/08/11 00:58:34;;;;;;;5.05;2.30;;;17.60;99.90;;;;;;5026749;28;20063;-71
2023/08/11 01:01:00;;;;;;;5.18;2.53;;;17.60;99.90;;;;;;5008579;28;20069;-70
2023/08/11 01:03:26;;;;;;;3.90;2.35;;;17.50;99.90;;;;;;5009724;28;20099;-70
2023/08/11 01:06:16;;;;;;;5.15;2.85;;;17.50;99.90;;;;;;5009003;28;20445;-70
2023/08/11 01:09:03;;;;;;;4.05;2.45;;;17.50;99.90;;;;;;5009867;28;20095;-70
2023/08/11 01:11:40;;;;;;;6.82;2.58;;;17.50;99.90;;;;;;5022118;28;20048;-69
2023/08/11 01:14:22;;;;;;;5.25;2.75;;;17.50;99.90;;;;;;5008711;28;20487;-72
2023/08/11 01:16:50;;;;;;;4.57;2.35;;;17.40;99.90;;;;;;5026978;28;20041;-72
2023/08/11 01:19:32;;;;;;;6.05;2.90;;;17.40;99.90;;;;;;5027147;28;20117;-71
2023/08/11 01:22:01;;;;;;;7.28;3.33;;;17.50;99.90;;;;;;4995673;28;20088;-71
2023/08/11 01:24:28;;;;;;;4.20;2.45;;;17.40;99.90;;;;;;5027343;28;20481;-71
2023/08/11 01:26:54;;;;;;;6.53;3.17;;;17.40;99.90;;;;;;5026166;28;20057;-72
2023/08/11 01:29:20;;;;;;;6.82;3.00;;;17.30;99.90;;;;;;5031157;28;20045;-70
2023/08/11 01:31:45;;;;;;;5.15;2.83;;;17.40;99.90;;;;;;5031571;28;20029;-70
2023/08/11 01:34:11;;;;;;;4.35;2.47;;;17.40;99.90;;;;;;5012916;28;20417;-72
2023/08/11 01:36:40;;;;;;;5.63;2.88;;;17.40;99.90;;;;;;5031336;28;20049;-70
2023/08/11 01:39:06;;;;;;;7.80;2.90;;;17.40;99.90;;;;;;5007031;28;20124;-71
2023/08/11 01:41:32;;;;;;;7.82;3.30;;;17.40;99.90;;;;;;5022797;28;20120;-70
2023/08/11 01:43:58;;;;;;;5.35;3.17;;;17.40;99.90;;;;;;5023975;28;20049;-71
2023/08/11 01:46:25;;;;;;;8.13;3.17;;;17.30;99.90;;;;;;5020424;28;20046;-72
2023/08/11 01:48:53;;;;;;;8.90;3.33;;;17.40;99.90;;;;;;4999836;28;20095;-69
2023/08/11 01:51:19;;;;;;;15.15;3.45;;;17.30;99.90;;;;;;5018604;28;20025;-71
2023/08/11 01:53:45;;;;;;;5.53;2.90;;;17.30;99.90;;;;;;5022274;28;20022;-71
2023/08/11 01:56:11;;;;;;;5.47;2.70;;;17.30;99.90;;;;;;5019615;28;20045;-72
2023/08/11 01:58:38;;;;;;;5.53;2.90;;;17.30;99.90;;;;;;5020305;28;20046;-72
2023/08/11 02:01:03;;;;;;;5.75;2.85;;;17.20;99.90;;;;;;4998410;28;20105;-71
2023/08/11 02:03:29;;;;;;;5.95;2.92;;;17.20;99.90;;;;;;5016669;28;20038;-71
2023/08/11 02:05:55;;;;;;;7.05;3.83;;;17.20;99.90;;;;;;5000254;28;20037;-71
2023/08/11 02:08:21;;;;;;;6.78;3.22;;;17.10;99.90;;;;;;5000425;28;20062;-71
2023/08/11 02:10:46;;;;;;;7.05;2.88;;;17.10;99.90;;;;;;5002921;28;20068;-74
2023/08/11 02:13:12;;;;;;;6.72;2.75;;;17.00;99.90;;;;;;5025368;28;20489;-71
2023/08/11 02:15:39;;;;;;;6.57;3.22;;;17.00;99.90;;;;;;5015497;28;20038;-72
2023/08/11 02:18:05;;;;;;;5.88;3.00;;;17.00;99.90;;;;;;5019080;28;20129;-70
2023/08/11 02:20:32;;;;;;;7.38;3.40;;;16.90;99.90;;;;;;5000886;28;20122;-71
2023/08/11 02:22:58;;;;;;;4.72;2.90;;;17.00;99.90;;;;;;5021260;28;20671;-71
2023/08/11 02:25:25;;;;;;;6.53;4.00;;;16.90;99.90;;;;;;5024200;28;20064;-72
2023/08/11 02:27:51;;;;;;;6.72;3.42;;;17.00;99.90;;;;;;5021544;28;20136;-71
2023/08/11 02:30:18;;;;;;;9.20;3.40;;;16.90;99.90;;;;;;5018666;28;20029;-70
2023/08/11 02:32:47;;;;;;;6.20;3.13;;;16.90;99.90;;;;;;5017078;28;20037;-72
2023/08/11 02:35:13;;;;;;;7.00;3.55;;;16.90;99.90;;;;;;5018866;28;20386;-72
2023/08/11 02:37:39;;;;;;;9.15;3.17;;;16.90;99.90;;;;;;5019799;28;20061;-70
2023/08/11 02:40:10;;;;;;;8.38;4.40;;;16.90;99.90;;;;;;5012134;28;20056;-71
2023/08/11 02:42:50;;;;;;;;;;;16.80;99.90;;;;;;5002208;28;20033;-70
2023/08/11 02:45:15;;;;;;;7.70;4.03;;;16.90;99.90;;;;;;5014161;28;19917;-72
2023/08/11 02:47:41;;;;;;;9.98;3.38;;;16.90;99.90;;;;;;5017742;28;20430;-71
2023/08/11 02:50:08;;;;;;;7.40;4.35;;;16.90;99.90;;;;;;4997452;28;20045;-71
2023/08/11 02:52:34;;;;;;;6.90;4.25;;;16.90;99.90;;;;;;5001664;28;20034;-71
2023/08/11 02:55:00;;;;;;;7.75;3.88;;;16.80;99.90;;;;;;5014429;28;20030;-70
2023/08/11 02:57:26;;;;;;;7.93;4.30;;;16.80;99.90;;;;;;5015022;28;20037;-70
2023/08/11 02:59:51;;;;;;;9.38;4.20;;;16.80;99.90;;;;;;5001983;28;20030;-73
2023/08/11 03:02:17;;;;;;;5.60;3.65;;;16.80;99.90;;;;;;5001196;28;20026;-72
2023/08/11 03:04:46;;;;;;;7.57;4.30;;;16.90;99.90;;;;;;5016318;28;20086;-71
2023/08/11 03:07:12;;;;;;;6.97;4.05;;;16.80;99.90;;;;;;5011740;28;20029;-72
2023/08/11 03:09:39;;;;;;;11.57;4.20;;;16.90;99.90;;;;;;5019713;28;20079;-72
2023/08/11 03:12:05;;;;;;;8.20;4.05;;;16.90;99.90;;;;;;5001372;28;20486;-71
2023/08/11 03:14:31;;;;;;;9.57;4.45;;;16.80;99.90;;;;;;5013426;28;20038;-71
2023/08/11 03:16:57;;;;;;;7.20;4.00;;;16.80;99.90;;;;;;5021669;28;20519;-70
2023/08/11 03:19:22;;;;;;;7.20;4.28;;;16.70;99.90;;;;;;4999399;28;20043;-70
2023/08/11 03:21:48;;;;;;;11.13;4.22;;;16.70;99.90;;;;;;5015023;28;20408;-70
2023/08/11 03:24:13;;;;;;;6.90;4.13;;;16.70;99.90;;;;;;5002659;28;20053;-72
2023/08/11 03:26:39;;;;;;;11.02;4.85;;;16.70;99.90;;;;;;5005529;28;20060;-70
2023/08/11 03:29:04;;;;;;;6.55;3.47;;;16.60;99.90;;;;;;5014477;28;20128;-70
2023/08/11 03:31:32;;;;;;;12.98;5.47;;;16.60;99.90;;;;;;4997935;28;20567;-70
2023/08/11 03:33:58;;;;;;;8.15;4.25;;;16.60;99.90;;;;;;5018931;28;20038;-71
2023/08/11 03:36:24;;;;;;;10.95;4.30;;;16.60;99.90;;;;;;5015016;28;20052;-71
2023/08/11 03:38:50;;;;;;;11.35;5.03;;;16.60;99.90;;;;;;5013917;28;20425;-71
2023/08/11 03:41:17;;;;;;;11.77;4.85;;;16.70;99.90;;;;;;5020313;28;20128;-71
2023/08/11 03:43:42;;;;;;;8.95;4.57;;;16.70;99.90;;;;;;4997168;28;20481;-71
2023/08/11 03:46:08;;;;;;;9.45;4.60;;;16.70;99.90;;;;;;5000197;28;20120;-71
2023/08/11 03:48:33;;;;;;;7.53;4.68;;;16.70;99.90;;;;;;5002652;28;20038;-71
2023/08/11 03:51:02;;;;;;;7.25;4.50;;;16.70;99.90;;;;;;5019702;28;20030;-71
2023/08/11 03:53:29;;;;;;;7.05;4.45;;;16.70;99.90;;;;;;5000437;28;20034;-70
2023/08/11 03:55:54;;;;;;;10.98;4.47;;;16.60;99.90;;;;;;5014100;28;20494;-70
2023/08/11 03:58:21;;;;;;;10.00;5.10;;;16.60;99.90;;;;;;5000412;28;20062;-72
2023/08/11 04:00:47;;;;;;;11.80;4.78;;;16.50;99.90;;;;;;5016254;28;20424;-71
2023/08/11 04:03:14;;;;;;;8.57;4.82;;;16.50;99.90;;;;;;5015431;28;20048;-71
2023/08/11 04:05:41;;;;;;;8.32;5.13;;;16.50;99.90;;;;;;5017470;28;20127;-71
2023/08/11 04:08:06;;;;;;;14.15;5.03;;;16.50;99.90;;;;;;5016615;28;20109;-70
2023/08/11 04:10:32;;;;;;;11.88;5.50;;;16.50;99.90;;;;;;5014946;28;20108;-71
2023/08/11 04:12:58;;;;;;;10.27;5.47;;;16.50;99.90;;;;;;5016517;28;20057;-70
2023/08/11 04:15:24;;;;;;;7.55;4.70;;;16.50;99.90;;;;;;5025750;28;20088;-71
2023/08/11 04:17:50;;;;;;;14.02;5.55;;;16.40;99.90;;;;;;5013266;28;20033;-71
2023/08/11 04:20:16;;;;;;;11.65;5.40;;;16.40;99.90;;;;;;5016716;28;20052;-72
2023/08/11 04:22:42;;;;;;;11.48;5.88;;;16.40;99.90;;;;;;5017843;28;20021;-70
2023/08/11 04:25:09;;;;;;;10.75;5.55;;;16.40;99.90;;;;;;5001416;28;20037;-70
2023/08/11 04:27:36;;;;;;;10.68;5.50;;;16.50;99.90;;;;;;5014327;28;20410;-72
2023/08/11 04:30:02;;;;;;;10.55;5.32;;;16.50;99.90;;;;;;4998585;28;20441;-70
2023/08/11 04:32:28;;;;;;;11.65;5.47;;;16.40;99.90;;;;;;4995377;28;20042;-70
2023/08/11 04:34:53;;;;;;;12.60;6.25;;;16.40;99.90;;;;;;5010960;28;20026;-71
2023/08/11 04:37:19;;;;;;;10.23;5.47;;;16.40;99.90;;;;;;5000869;28;20034;-72
2023/08/11 04:39:45;;;;;;;10.20;5.05;;;16.40;99.90;;;;;;5019048;28;20133;-71
2023/08/11 04:42:12;;;;;;;12.82;6.18;;;16.40;99.90;;;;;;5012753;28;20509;-71
2023/08/11 04:44:38;;;;;;;11.90;5.55;;;16.40;99.90;;;;;;4998547;28;20048;-70
2023/08/11 04:47:04;;;;;;;13.43;6.22;;;16.40;99.90;;;;;;5001521;28;20029;-70
2023/08/11 04:49:32;;;;;;;12.25;5.80;;;16.40;99.90;;;;;;5017322;28;20103;-72
2023/08/11 04:52:00;;;;;;;14.18;5.95;;;16.50;99.90;;;;;;5016046;28;20045;-70
2023/08/11 04:54:26;;;;;;;10.55;5.45;;;16.50;99.90;;;;;;4999890;28;20042;-71
2023/08/11 04:56:52;;;;;;;9.90;5.22;;;16.50;99.90;;;;;;5002304;28;20030;-71
2023/08/11 04:59:18;;;;;;;15.73;5.85;;;16.50;99.90;;;;;;5014002;28;20513;-70
2023/08/11 05:01:43;;;;;;;12.05;5.70;;;16.60;99.90;;;;;;5013307;28;20033;-72
2023/08/11 05:04:09;;;;;;;11.82;5.45;;;16.50;99.90;;;;;;5016157;28;20037;-71
2023/08/11 05:06:35;;;;;;;13.55;6.22;;;16.60;99.90;;;;;;5015602;28;20370;-71
2023/08/11 05:09:02;;;;;;;11.88;6.07;;;16.50;99.90;;;;;;5012268;28;20903;-71
2023/08/11 05:11:28;;;;;;;13.70;6.03;;;16.60;99.90;;;;;;4999781;28;20040;-72
2023/08/11 05:13:54;;;;;;;12.07;5.78;;;16.60;99.90;;;;;;4998138;28;20030;-72
2023/08/11 05:16:20;;;;;;;9.63;5.93;;;16.70;99.90;;;;;;5013365;28;20038;-70
2023/08/11 05:18:46;;;;;;;15.13;6.45;;;16.60;99.90;;;;;;5016422;28;20124;-70
2023/08/11 05:21:13;;;;;;;14.88;6.85;;;16.70;99.90;;;;;;4996830;28;20378;-72
2023/08/11 05:23:39;;;;;;;12.73;6.63;;;16.80;99.90;;;;;;5012932;28;20586;-70
2023/08/11 05:26:05;;;;;;;13.40;6.00;;;16.80;99.90;;;;;;5016393;28;20116;-70
2023/08/11 05:28:30;;;;;;;11.05;6.47;;;16.90;99.90;;;;;;4998495;28;20552;-72
2023/08/11 05:30:56;;;;;;;11.63;5.75;;;16.90;99.90;;;;;;4995915;28;20045;-71
2023/08/11 05:33:23;;;;;;;10.52;6.53;;;17.00;99.90;;;;;;4994832;28;20048;-70
2023/08/11 05:35:49;;;;;;;13.50;5.53;;;17.00;99.90;;;;;;5018780;28;20052;-72
2023/08/11 05:38:14;;;;;;;14.40;5.75;;;17.10;99.90;;;;;;5017182;28;20037;-71
2023/08/11 05:40:41;;;;;;;10.80;5.88;;;17.10;99.90;;;;;;5015109;28;20034;-73
2023/08/11 05:43:07;;;;;;;12.25;5.90;;;17.20;99.90;;;;;;4997997;28;20034;-72
2023/08/11 05:45:32;;;;;;;10.90;5.85;;;17.30;99.90;;;;;;5017893;28;20045;-71
2023/08/11 05:47:59;;;;;;;12.50;6.47;;;17.30;99.90;;;;;;4997015;28;20116;-71
2023/08/11 05:50:24;;;;;;;10.60;5.50;;;17.30;99.90;;;;;;4994450;28;20129;-71
2023/08/11 05:52:50;;;;;;;15.93;6.65;;;17.40;99.90;;;;;;4998043;28;20113;-71
2023/08/11 05:55:16;;;;;;;10.05;5.75;;;17.60;99.90;;;;;;4997701;28;20428;-72
2023/08/11 05:57:41;;;;;;;9.25;5.38;;;17.60;99.90;;;;;;4994452;28;20058;-71
2023/08/11 06:00:08;;;;;;;10.82;5.53;;;17.70;99.90;;;;;;5016027;28;20034;-71
2023/08/11 06:02:34;;;;;;;15.48;5.60;;;17.80;99.90;;;;;;4997805;28;20076;-72
2023/08/11 06:05:00;;;;;;;12.30;5.93;;;17.90;99.90;;;;;;4995167;28;20049;-70
2023/08/11 06:07:25;;;;;;;11.70;6.18;;;18.00;99.90;;;;;;4998177;28;20037;-70
2023/08/11 06:09:51;;;;;;;10.88;5.65;;;18.20;99.90;;;;;;4997754;28;20096;-70
2023/08/11 06:12:16;;;;;;;10.63;5.50;;;18.30;99.90;;;;;;5019578;28;20473;-72
2023/08/11 06:14:42;;;;;;;16.98;5.40;;;18.30;99.90;;;;;;5015200;28;20393;-72
2023/08/11 06:17:08;;;;;;;8.30;4.95;;;18.50;99.90;;;;;;5004392;28;20037;-71
2023/08/11 06:19:33;;;;;;;14.07;5.18;;;18.60;99.90;;;;;;5017343;28;20532;-71
2023/08/11 06:21:59;;;;;;;11.88;5.65;;;18.70;99.90;;;;;;5017785;28;20125;-73
2023/08/11 06:24:25;;;;;;;14.90;5.75;;;18.80;99.90;;;;;;5018177;28;20037;-72
2023/08/11 06:26:51;;;;;;;10.57;5.43;;;19.00;99.90;;;;;;5001608;28;20546;-70
2023/08/11 06:29:17;;;;;;;11.75;5.53;;;19.20;99.90;;;;;;4998557;28;20030;-71
2023/08/11 06:31:43;;;;;;;8.85;4.68;;;19.40;99.90;;;;;;5001369;28;20037;-72
2023/08/11 06:34:08;;;;;;;10.30;4.85;;;19.70;99.90;;;;;;5017355;28;20128;-69
2023/08/11 06:36:34;;;;;;;10.15;4.68;;;19.80;99.90;;;;;;5005106;28;20634;-72
2023/08/11 06:38:59;;;;;;;8.82;4.50;;;20.00;99.90;;;;;;5014348;28;20049;-71
2023/08/11 06:41:25;;;;;;;9.45;4.63;;;20.30;99.90;;;;;;5021901;28;20033;-70
2023/08/11 06:43:53;;;;;;;8.18;3.72;;;20.60;99.90;;;;;;5005566;28;20033;-70
2023/08/11 06:46:18;;;;;;;10.18;4.28;;;21.20;99.90;;;;;;5003978;28;20091;-71
2023/08/11 06:48:44;;;;;;;9.77;3.88;;;22.10;99.90;;;;;;5001667;28;20108;-73
2023/08/11 06:51:09;;;;;;;5.65;3.92;;;23.00;99.90;;;;;;5020317;28;20045;-71
2023/08/11 06:53:35;;;;;;;5.80;3.50;;;24.10;99.90;;;;;;5013976;28;20041;-73
2023/08/11 06:56:00;;;;;;;8.23;4.25;;;24.80;99.90;;;;;;5003432;28;20045;-72
2023/08/11 06:58:26;;;;;;;6.10;3.65;;;25.50;99.90;;;;;;5024419;28;20433;-72
2023/08/11 07:00:52;;;;;;;5.30;3.67;;;26.20;99.90;;;;;;5028204;28;20488;-72
2023/08/11 07:03:17;;;;;;;7.43;3.97;;;26.70;99.90;;;;;;5010624;28;20037;-73
2023/08/11 07:05:43;;;;;;;7.00;4.05;;;27.20;99.90;;;;;;5029029;28;20493;-73
2023/08/11 07:08:09;;;;;;;9.00;5.07;;;27.30;99.90;;;;;;5019423;28;20052;-72
2023/08/11 07:10:34;;;;;;;8.60;5.05;;;27.90;99.90;;;;;;5028936;28;20041;-72
2023/08/11 07:13:00;;;;;;;12.13;5.35;;;28.60;99.90;;;;;;5026884;28;20037;-72
2023/08/11 07:15:25;;;;;;;9.50;5.00;;;29.30;99.60;;;;;;5030058;28;20038;-72
2023/08/11 07:17:51;;;;;;;8.20;4.43;;;29.80;99.10;;;;;;5027811;28;20036;-73
2023/08/11 07:20:16;;;;;;;6.45;4.68;;;30.00;98.10;;;;;;5011962;28;20049;-74
2023/08/11 07:22:42;;;;;;;9.35;4.43;;;30.40;97.70;;;;;;5011596;28;20052;-73
2023/08/11 07:25:08;;;;;;;9.50;4.95;;;30.60;97.30;;;;;;5027307;28;20018;-74
2023/08/11 07:27:33;;;;;;;11.85;5.15;;;30.40;97.20;;;;;;5028957;28;20033;-72
2023/08/11 07:29:59;;;;;;;12.70;4.90;;;30.30;97.40;;;;;;5026613;28;20549;-72
2023/08/11 07:32:24;;;;;;;10.90;4.95;;;30.30;96.80;;;;;;5028913;28;20048;-73
2023/08/11 07:34:50;;;;;;;19.45;4.95;;;29.90;96.80;;;;;;5010272;28;20117;-73
2023/08/11 07:37:15;;;;;;;8.73;3.63;;;29.20;97.60;;;;;;5011240;28;20405;-72
2023/08/11 07:39:42;;;;;;;8.80;3.30;;;28.40;98.30;;;;;;5007022;28;20481;-72
2023/08/11 07:42:08;;;;;;;9.50;4.28;;;27.70;98.80;;;;;;5009941;28;20554;-72
2023/08/11 07:44:33;;;;;;;5.13;2.83;;;27.10;99.70;;;;;;5010686;28;20125;-71
2023/08/11 07:47:01;;;;;;;13.98;4.28;;;26.60;99.90;;;;;;5020174;28;20120;-73
2023/08/11 07:49:27;;;;;;;5.45;2.63;;;26.20;99.90;;;;;;5029012;28;20763;-72
2023/08/11 07:51:53;;;;;;;7.65;3.28;;;25.80;99.90;;;;;;5027505;28;20037;-71
2023/08/11 07:54:18;;;;;;;5.43;2.90;;;25.40;99.90;;;;;;5028618;28;20512;-71
2023/08/11 07:56:44;;;;;;;8.20;2.95;;;25.10;99.90;;;;;;5027726;28;20038;-72
2023/08/11 07:59:11;;;;;;;5.82;2.60;;;24.90;99.90;;;;;;5007366;28;20056;-72
2023/08/11 08:01:37;;;;;;;3.60;2.03;;;24.80;99.90;;;;;;5010270;28;20125;-71
2023/08/11 08:04:03;;;;;;;4.80;2.22;;;24.60;99.90;;;;;;5009399;28;20464;-70
2023/08/11 08:06:30;;;;;;;5.72;2.55;;;24.60;99.90;;;;;;5010524;28;20465;-72
2023/08/11 08:08:56;;;;;;;4.75;2.55;;;24.60;99.90;;;;;;5008746;28;20178;-72
2023/08/11 08:11:22;;;;;;;8.50;2.25;;;24.50;99.90;;;;;;5010019;28;20041;-71
2023/08/11 08:13:47;;;;;;;6.82;2.50;;;24.60;99.90;;;;;;5010404;28;20057;-72
2023/08/11 08:16:13;;;;;;;5.95;2.53;;;24.60;99.90;;;;;;5003062;28;20124;-72
2023/08/11 08:18:38;;;;;;;4.47;1.63;;;24.60;99.90;;;;;;5007205;28;20061;-72
2023/08/11 08:21:04;;;;;;;5.68;2.42;;;24.60;99.90;;;;;;5027098;28;20033;-72
2023/08/11 08:23:29;;;;;;;5.43;1.70;;;24.60;99.90;;;;;;5027426;28;20041;-71
2023/08/11 08:25:55;;;;;;;4.30;1.80;;;24.60;99.90;;;;;;5008085;28;20030;-73
2023/08/11 08:28:21;;;;;;;5.40;2.40;;;24.80;99.90;;;;;;5027941;28;20392;-72
2023/08/11 08:30:46;;;;;;;3.53;1.58;;;24.80;99.90;;;;;;5023561;28;20456;-71
2023/08/11 08:33:12;;;;;;;2.38;1.38;;;24.90;99.90;;;;;;5025232;28;20045;-71
2023/08/11 08:35:37;;;;;;;5.43;1.88;;;25.20;99.90;;;;;;5027975;28;20132;-71
2023/08/11 08:38:05;;;;;;;4.85;1.70;;;25.40;99.90;;;;;;5009285;28;20176;-71
2023/08/11 08:40:31;;;;;;;3.53;1.90;;;25.50;99.90;;;;;;5010739;28;20393;-70
2023/08/11 08:42:57;;;;;;;3.80;2.03;;;25.60;99.90;;;;;;5027032;28;20036;-72
2023/08/11 08:45:24;;;;;;;7.43;2.00;;;25.60;99.90;;;;;;5025385;28;20037;-71
2023/08/11 08:47:52;;;;;;;4.57;1.58;;;25.60;99.90;;;;;;4995989;28;20045;-71
2023/08/11 08:50:18;;;;;;;5.60;2.13;;;25.60;99.90;;;;;;4998511;28;20050;-72
2023/08/11 08:52:43;;;;;;;2.55;1.50;;;25.90;99.90;;;;;;5015986;28;20064;-72
2023/08/11 08:55:09;;;;;;;4.75;1.25;;;26.00;99.90;;;;;;5014010;28;21101;-72
2023/08/11 08:57:36;;;;;;;4.20;1.50;;;25.90;99.90;;;;;;5016123;28;20041;-71
2023/08/11 09:00:02;;;;;;;3.53;1.38;;;25.90;99.90;;;;;;5012992;28;20104;-71
2023/08/11 09:02:28;;;;;;;4.75;2.05;;;25.90;99.90;;;;;;5001627;28;20045;-72
2023/08/11 09:04:55;;;;;;;3.33;1.42;;;26.00;99.90;;;;;;5004574;28;20037;-73
2023/08/11 09:07:20;;;;;;;5.15;1.73;;;26.00;99.90;;;;;;5006851;28;20039;-72
2023/08/11 09:09:46;;;;;;;7.50;1.65;;;26.10;99.90;;;;;;5025544;28;20136;-72
2023/08/11 09:12:12;;;;;;;7.70;2.22;;;26.10;99.90;;;;;;5024623;28;20029;-72
2023/08/11 09:14:38;;;;;;;2.70;1.50;;;26.10;99.90;;;;;;5027044;28;20045;-72
2023/08/11 09:17:05;;;;;;;6.18;1.60;;;26.20;99.90;;;;;;5008255;28;20090;-72
2023/08/11 09:19:31;;;;;;;4.88;1.55;;;26.30;99.90;;;;;;5005548;28;20118;-72
2023/08/11 09:21:57;;;;;;;2.83;1.58;;;26.30;99.90;;;;;;5008508;28;20113;-71
2023/08/11 09:24:23;;;;;;;4.53;1.55;;;26.50;99.90;;;;;;5027419;28;20033;-73
2023/08/11 09:26:49;;;;;;;8.45;1.88;;;26.50;99.90;;;;;;5027689;28;20041;-71
2023/08/11 09:29:19;;;;;;;4.85;1.52;;;26.50;99.90;;;;;;5009719;28;20400;-71
2023/08/11 09:31:49;;;;;;;6.32;1.88;;;26.40;99.90;;;;;;5028715;28;20091;-71
2023/08/11 09:34:18;;;;;;;7.03;1.60;;;26.40;99.90;;;;;;5025812;28;20034;-69
2023/08/11 09:36:48;;;;;;;2.70;1.65;;;26.40;99.90;;;;;;5006671;28;20037;-70
2023/08/11 09:39:14;;;;;;;3.72;1.70;;;26.40;99.90;;;;;;5025418;28;20037;-70
2023/08/11 09:41:45;;;;;;;4.13;1.88;;;26.40;99.90;;;;;;5026327;28;20033;-71
2023/08/11 09:44:14;;;;;;;3.65;1.60;;;26.40;99.90;;;;;;5025474;28;20034;-72
2023/08/11 09:46:40;;;;;;;5.03;1.58;;;26.50;99.90;;;;;;5008376;28;20457;-73
2023/08/11 09:49:06;;;;;;;3.90;1.70;;;26.50;99.90;;;;;;5027616;28;20025;-71
2023/08/11 09:51:34;;;;;;;4.43;1.52;;;26.60;99.90;;;;;;5031084;28;20042;-72
2023/08/11 09:54:06;;;;;;;4.05;1.77;;;26.70;99.90;;;;;;5030027;28;20504;-71
2023/08/11 09:56:38;;;;;;;12.57;1.60;;;26.70;99.90;;;;;;5013321;28;20128;-71
2023/08/11 09:59:06;;;;;;;2.45;1.60;;;26.80;99.90;;;;;;5028847;28;20034;-71
2023/08/11 10:01:36;;;;;;;2.67;1.25;;;26.80;99.90;;;;;;5007956;28;20049;-71
2023/08/11 10:04:12;;;;;;;4.07;1.73;;;26.70;99.90;;;;;;5027160;28;20037;-71
2023/08/11 10:06:43;;;;;;;3.78;1.30;;;26.80;99.90;;;;;;5011229;28;20497;-71
2023/08/11 10:09:12;;;;;;;3.90;1.73;;;26.90;99.90;;;;;;5011858;28;20034;-72
2023/08/11 10:11:38;;;;;;;2.67;1.30;;;26.90;99.90;;;;;;5023501;28;20042;-72
2023/08/11 10:14:05;;;;;;;3.55;1.50;;;26.90;99.90;;;;;;5012034;28;20059;-71
2023/08/11 10:16:31;;;;;;;3.17;1.10;;;27.00;99.90;;;;;;5012899;28;20037;-71
2023/08/11 10:18:58;;;;;;;2.55;1.60;;;27.00;99.90;;;;;;5029443;28;20033;-72
2023/08/11 10:21:25;;;;;;;3.10;1.48;;;26.90;99.90;;;;;;5013723;28;20037;-72
2023/08/11 10:23:54;;;;;;;2.10;1.13;;;27.00;99.90;;;;;;5004670;28;20056;-70
2023/08/11 10:26:21;;;;;;;2.88;1.20;;;27.10;99.90;;;;;;5005195;28;20029;-72
2023/08/11 10:28:48;;;;;;;3.75;1.67;;;27.20;99.90;;;;;;5012440;28;20025;-72
2023/08/11 10:31:14;;;;;;;5.80;1.10;;;27.20;99.90;;;;;;5029639;28;20038;-71
2023/08/11 10:33:48;;;;;;;3.60;1.70;;;27.20;99.90;;;;;;5012555;28;20044;-71
2023/08/11 10:36:17;;;;;;;2.70;1.55;;;27.40;99.90;;;;;;5011618;28;20113;-72
2023/08/11 10:38:44;;;;;;;4.35;1.60;;;27.40;99.90;;;;;;5012395;28;20057;-71
2023/08/11 10:41:10;;;;;;;2.22;1.33;;;27.40;99.90;;;;;;5011543;28;20140;-71
2023/08/11 10:43:40;;;;;;;7.78;2.25;;;27.40;99.90;;;;;;5012427;28;20117;-71
2023/08/11 10:46:21;;;;;;;;;;;27.40;99.90;;;;;;5029603;28;20124;-72
2023/08/11 10:48:47;;;;;;;2.55;1.45;;;27.50;99.90;;;;;;5012171;28;20367;-72
2023/08/11 10:51:33;;;;;;;5.20;1.50;;;27.50;99.90;;;;;;5011314;28;20129;-71
2023/08/11 10:54:11;;;;;;;6.00;2.03;;;27.60;99.90;;;;;;5021840;28;20038;-71
2023/08/11 10:56:44;;;;;;;7.78;1.70;;;27.70;99.90;;;;;;5010021;28;20505;-71
2023/08/11 10:59:21;;;;;;;5.05;1.92;;;27.70;99.90;;;;;;5010262;28;20102;-71
2023/08/11 11:01:48;;;;;;;3.78;2.20;;;27.80;99.90;;;;;;5027813;28;20034;-73
2023/08/11 11:04:15;;;;;;;5.00;1.80;;;27.70;99.90;;;;;;5028068;28;20112;-72
2023/08/11 11:06:47;;;;;;;4.82;2.35;;;27.80;99.90;;;;;;5012301;28;20037;-72
2023/08/11 11:09:13;;;;;;;3.53;1.90;;;27.80;99.90;;;;;;5028341;28;20120;-71
2023/08/11 11:11:39;;;;;;;5.50;1.90;;;27.90;99.90;;;;;;5011781;28;20041;-71
2023/08/11 11:14:06;;;;;;;6.32;2.20;;;28.00;99.90;;;;;;5030111;28;20033;-70
2023/08/11 11:16:32;;;;;;;2.38;1.45;;;28.00;99.90;;;;;;5029711;28;20168;-73
2023/08/11 11:19:00;;;;;;;4.53;2.00;;;28.00;99.90;;;;;;5010518;28;20052;-71
2023/08/11 11:21:26;;;;;;;3.80;1.83;;;28.30;99.90;;;;;;5029094;28;20088;-71
2023/08/11 11:23:51;;;;;;;3.58;1.90;;;28.40;99.90;;;;;;5025007;28;20064;-71
2023/08/11 11:26:28;;;;;;;5.80;2.67;;;28.40;99.90;;;;;;5011895;28;20048;-71
2023/08/11 11:28:58;;;;;;;2.35;1.60;;;28.30;99.90;;;;;;5004928;28;20030;-70
2023/08/11 11:31:27;;;;;;;3.50;1.90;;;28.20;99.90;;;;;;5029585;28;20490;-71
2023/08/11 11:33:53;;;;;;;5.28;2.42;;;28.20;99.90;;;;;;5028218;28;20038;-73
2023/08/11 11:36:19;;;;;;;8.30;2.30;;;28.20;99.90;;;;;;5011589;28;20045;-72
2023/08/11 11:38:45;;;;;;;5.10;2.25;;;28.30;99.90;;;;;;5021080;28;20040;-73
2023/08/11 11:41:18;;;;;;;4.10;2.05;;;28.30;99.90;;;;;;5028378;28;20029;-71
2023/08/11 11:43:46;;;;;;;6.93;1.92;;;28.20;99.90;;;;;;5011542;28;20452;-71
2023/08/11 11:46:15;;;;;;;4.85;1.73;;;28.30;99.90;;;;;;5028239;28;20131;-70
2023/08/11 11:48:52;;;;;;;7.10;2.03;;;28.30;99.90;;;;;;5029034;28;20034;-70
2023/08/11 11:51:26;;;;;;;5.50;2.00;;;28.30;99.90;;;;;;5021660;28;20056;-73
2023/08/11 11:53:54;;;;;;;3.97;1.80;;;28.30;99.90;;;;;;5028014;28;20042;-71
2023/08/11 11:56:20;;;;;;;4.40;1.77;;;28.40;99.90;;;;;;5029033;28;20507;-71
2023/08/11 11:58:48;;;;;;;9.02;2.05;;;28.30;99.90;;;;;;5028484;28;20071;-73
2023/08/11 12:01:19;;;;;;;3.35;1.33;;;28.40;99.90;;;;;;5019727;28;20033;-73
2023/08/11 12:03:46;;;;;;;4.78;1.92;;;28.30;99.90;;;;;;5012429;28;20045;-71
2023/08/11 12:06:12;;;;;;;4.35;1.67;;;28.10;99.90;;;;;;5028806;28;20029;-73
2023/08/11 12:08:41;;;;;;;2.25;1.40;;;28.00;99.90;;;;;;5028598;28;20045;-72
2023/08/11 12:11:09;;;;;;;2.35;1.23;;;27.70;99.90;;;;;;5026228;28;20037;-73
2023/08/11 12:13:41;;;;;;;2.40;1.58;;;27.70;99.90;;;;;;5010749;28;20037;-70
2023/08/11 12:16:09;;;;;;;3.55;1.58;;;27.80;99.90;;;;;;5010004;28;20112;-71
2023/08/11 12:18:35;;;;;;;3.30;1.60;;;28.00;99.90;;;;;;5010651;28;20044;-72
2023/08/11 12:21:02;;;;;;;2.08;1.00;;;28.10;99.90;;;;;;5027584;28;20052;-72
2023/08/11 12:23:27;;;;;;;2.72;1.80;;;28.20;99.90;;;;;;5028777;28;20433;-73
2023/08/11 12:25:56;;;;;;;4.50;1.40;;;28.20;99.90;;;;;;5027182;28;20030;-72
2023/08/11 12:28:22;;;;;;;3.30;1.23;;;28.20;99.90;;;;;;5010514;28;20034;-72
2023/08/11 12:30:48;;;;;;;3.10;1.42;;;28.20;99.90;;;;;;5010533;28;20041;-72
2023/08/11 12:33:15;;;;;;;4.88;1.55;;;28.20;99.90;;;;;;5009961;28;20044;-72
2023/08/11 12:35:41;;;;;;;3.17;1.17;;;28.20;99.90;;;;;;5028473;28;20396;-72
2023/08/11 12:38:12;;;;;;;7.72;1.70;;;28.20;99.90;;;;;;5025419;28;20187;-73
2023/08/11 12:40:38;;;;;;;3.40;1.27;;;28.50;99.90;;;;;;5018757;28;20037;-72
2023/08/11 12:43:04;;;;;;;3.10;1.00;;;28.80;99.90;;;;;;5017649;28;20110;-72
2023/08/11 12:45:29;;;;;;;3.22;1.40;;;28.90;99.90;;;;;;5022586;28;20519;-73